Impacts METAR Board
IDs:

KORD - Chicago/O'Hare Intl, IL, US

Updated at: 1200 UTC 15 Jul 2020
Potential Impact None Slight Moderate High
Time 15/00Z 15/01Z 15/02Z 15/03Z 15/04Z 15/05Z 15/06Z 15/07Z 15/08Z 15/09Z 15/10Z 15/11Z 15/12Z
Temp83 81 80 78 77 76 76 76 75 74 75 75 76
Dewpt63 63 65 64 64 65 65 65 65 65 64 64 64
Altim29.96 29.98 29.98 30.02 30.01 30.02 30.01 30.00 29.98 29.97 29.99 29.98 30.00
VIS10 10 10 10 10 10 10 10 10 10 10 10 10
CIG250 200 200 200 200 250 250 250 250 250 55 55 55
CoverBKNBKNBKNOVCOVCOVCOVCOVCOVCOVCOVCOVCOVC
FltCatVFRVFRVFRVFRVFRVFRVFRVFRVFRVFRVFRVFRVFR
WX--------------------------
WDir180170170180180170170180180180190180200
WSpd11 9 6 6 7 6 6 5 9 8 4 6 6
WGst-- -- -- -- -- -- -- -- -- -- -- -- --
Raw hourly METARs
KORD 142351Z 18011KT 10SM FEW150 FEW200 BKN250 28/17 A2996 RMK AO2 SLP141 T02830172 10300 20283 58007
KORD 150051Z 17009KT 10SM FEW150 BKN200 BKN250 27/17 A2998 RMK AO2 SLP147 T02720172
KORD 150151Z 17006KT 10SM FEW150 BKN200 BKN250 27/18 A2998 RMK AO2 SLP148 T02670183
KORD 150251Z 18006KT 10SM FEW150 BKN200 OVC250 26/18 A3002 RMK AO2 SLP158 T02560178 53017
KORD 150351Z 18007KT 10SM BKN200 OVC250 25/18 A3001 RMK AO2 SLP156 T02500178
KORD 150451Z 17006KT 10SM FEW200 OVC250 24/18 A3002 RMK AO2 SLP160 T02440183
KORD 150551Z 17006KT 10SM FEW200 OVC250 24/18 A3001 RMK AO2 SLP158 T02440183 10283 20244 403000200 57001
KORD 150651Z 18005KT 10SM FEW200 OVC250 24/18 A3000 RMK AO2 SLP153 T02440183
KORD 150751Z 18009KT 10SM FEW200 OVC250 24/18 A2998 RMK AO2 SLP148 T02390183
KORD 150851Z 18008KT 10SM OVC250 23/18 A2997 RMK AO2 SLP144 T02330183 56013
KORD 150951Z 19004KT 10SM BKN055 OVC250 24/18 A2999 RMK AO2 SLP151 T02390178
KORD 151051Z 18006KT 10SM BKN055 OVC250 24/18 A2998 RMK AO2 SLP145 T02390178
KORD 151151Z 20006KT 10SM BKN055 OVC250 24/18 A3000 RMK AO2 SLP155 T02440178 10244 20233 53010



Page loaded:  12:16 UTC  |   05:16 AM Pacific  |   06:16 AM Mountain  |   07:16 AM Central  |   08:16 AM Eastern

 

ADVISORIES

FORECASTS

FORECASTS

OBSERVATIONS

USER TOOLS

ABOUT US